Odell, Nebraska
Current Conditions -  °F | °C
As of 6:35 AM on Friday 24 Oct 2014 (Local Time) from KMYZ Reporting Station
Clear Clear  
Wind Chill: 59°   Ceiling: Unl
Heat Index: 59°   Visibility: 7mi
Dew Point: 57°   Wind: 9mph
Humidity: 94%   Direction: 190°S
Pressure: 29.99"   Gusts: NA
Location:  40.05°N, 96.8°W
Report Text: KMYZ 241135Z AUTO 19008KT 7SM CLR 15/14 A2999 RMK AO2
Loading
Personal Weather Stations






























Interactive Weather Map
Tropical Storm Tracking
New forecast layout! Learn more

10-Day Weather Forecast

Advertisements
Track Severe Weather on mobile